Time;durP1;ratioP1;P1;durP2;ratioP2;P2;SDS_P1;SDS_P2;PMS_P1;PMS_P2;Temp;Humidity;BMP_temperature;BMP_pressure;BME280_temperature;BME280_humidity;BME280_pressure;Samples;Min_cycle;Max_cycle;Signal;HPM_P1;HPM_P2
2022/12/17 13:08:45;;;;;;;8.40;5.57;;;3.10;99.90;;;;;;4880733;29;20196;-73
2022/12/17 13:15:04;;;;;;;9.57;5.40;;;2.90;99.90;;;;;;4842939;29;20188;-73
2022/12/17 13:18:10;;;;;;;6.90;4.17;;;2.80;99.90;;;;;;4843778;29;20180;-74
2022/12/17 13:21:07;;;;;;;8.40;5.10;;;2.80;99.90;;;;;;4862763;29;20179;-73
2022/12/17 13:23:52;;;;;;;6.83;4.70;;;2.80;99.90;;;;;;4865041;29;20175;-74
2022/12/17 13:26:48;;;;;;;6.23;4.40;;;2.70;99.90;;;;;;4880139;29;20189;-71
2022/12/17 13:32:49;;;;;;;6.57;4.70;;;2.70;99.90;;;;;;4857768;29;20241;-74
2022/12/17 13:35:47;;;;;;;7.63;4.70;;;2.70;99.90;;;;;;4976656;28;20172;-73
2022/12/17 13:38:23;;;;;;;7.53;4.73;;;2.80;99.90;;;;;;4964525;28;20271;-73
2022/12/17 13:41:04;;;;;;;6.67;4.60;;;2.80;99.90;;;;;;4970501;28;20251;-72
2022/12/17 13:57:53;;;;;;;8.87;5.20;;;3.10;99.90;;;;;;4955633;28;20230;-73
2022/12/17 14:18:20;;;;;;;;;;;;;;;;;;;;;
2022/12/17 14:52:43;;;;;;;;;;;;;;;;;;;;;
2022/12/17 14:55:59;;;;;;;7.93;4.87;;;0.90;99.90;;;;;;4929221;28;20191;-73
2022/12/17 15:23:15;;;;;;;11.60;6.93;;;0.10;99.90;;;;;;4988736;28;20485;-74
2022/12/17 15:26:18;;;;;;;13.87;6.93;;;0.00;99.90;;;;;;4972602;28;20262;-71
2022/12/17 15:39:48;;;;;;;6.83;4.30;;;-0.30;99.90;;;;;;4994768;28;20217;-73
2022/12/17 16:09:39;;;;;;;;;;;;;;;;;;;;;
2022/12/17 16:19:32;;;;;;;7.03;4.47;;;-0.80;99.90;;;;;;4975675;28;20298;-72
2022/12/17 17:25:18;;;;;;;;;;;;;;;;;;;;;
2022/12/17 18:06:16;;;;;;;;;;;;;;;;;;;;;
2022/12/17 22:11:35;;;;;;;11.13;6.53;;;-3.40;99.90;;;;;;5308434;23;20238;-76
2022/12/17 22:14:01;;;;;;;10.13;6.33;;;-3.40;99.90;;;;;;4976556;28;20180;-72
2022/12/17 22:16:33;;;;;;;11.10;6.50;;;-3.40;99.90;;;;;;4961955;28;20187;-75
2022/12/17 22:19:01;;;;;;;12.13;6.77;;;-3.00;99.90;;;;;;4976487;28;20215;-75
2022/12/17 22:21:31;;;;;;;10.40;6.40;;;-3.40;99.90;;;;;;4978053;28;20183;-76
2022/12/17 22:23:56;;;;;;;11.67;6.13;;;-3.40;99.90;;;;;;4977060;28;20310;-74
2022/12/17 22:26:24;;;;;;;11.37;6.17;;;-3.40;99.90;;;;;;4972179;28;20226;-76
2022/12/17 22:28:52;;;;;;;11.30;6.10;;;-3.50;99.90;;;;;;4985494;28;20175;-75
2022/12/17 22:34:05;;;;;;;11.17;6.47;;;-3.50;99.90;;;;;;4996325;28;20166;-76
2022/12/17 22:36:34;;;;;;;13.37;6.87;;;-3.50;99.90;;;;;;4975754;28;20180;-76
2022/12/17 22:39:06;;;;;;;12.13;7.00;;;-3.50;99.90;;;;;;4973634;28;20195;-76
2022/12/17 22:44:19;;;;;;;10.67;6.47;;;-3.60;99.90;;;;;;4996148;28;20195;-75
2022/12/17 22:46:45;;;;;;;11.50;6.90;;;-3.60;99.90;;;;;;4973115;28;20196;-75
2022/12/17 22:49:10;;;;;;;10.17;6.57;;;-3.50;99.90;;;;;;4961883;28;20168;-75
2022/12/17 22:51:36;;;;;;;11.00;6.40;;;-3.50;99.90;;;;;;4977536;28;20250;-76
2022/12/17 22:54:08;;;;;;;14.13;6.93;;;-3.60;99.90;;;;;;4970898;28;20215;-75
2022/12/17 22:56:39;;;;;;;9.77;5.60;;;-3.60;99.90;;;;;;4981782;28;20186;-76
2022/12/17 22:59:13;;;;;;;9.17;5.50;;;-3.60;99.90;;;;;;4978912;28;20183;-75
2022/12/17 23:01:38;;;;;;;11.63;6.30;;;-3.50;99.90;;;;;;4975607;28;20221;-76
2022/12/17 23:04:12;;;;;;;11.47;6.63;;;-3.50;99.90;;;;;;4960775;28;20258;-75
2022/12/17 23:06:38;;;;;;;11.10;6.67;;;-3.50;99.90;;;;;;4978917;28;20191;-75
2022/12/17 23:09:04;;;;;;;9.67;6.07;;;-3.50;99.90;;;;;;4978717;28;20432;-75
2022/12/17 23:11:30;;;;;;;9.80;6.10;;;-3.40;99.90;;;;;;4977792;28;20294;-75
2022/12/17 23:13:57;;;;;;;10.80;6.33;;;-3.40;99.90;;;;;;4975216;28;20222;-76
2022/12/17 23:16:28;;;;;;;10.13;6.00;;;-3.30;99.90;;;;;;4978655;28;20176;-75
2022/12/17 23:18:54;;;;;;;11.20;6.63;;;-3.30;99.90;;;;;;4969153;28;20191;-76
2022/12/17 23:21:25;;;;;;;13.23;7.03;;;-3.20;99.90;;;;;;4978822;28;20237;-75
2022/12/17 23:23:55;;;;;;;11.87;6.80;;;-3.20;99.90;;;;;;4978383;28;20210;-74
2022/12/17 23:26:23;;;;;;;12.00;6.73;;;-3.20;99.90;;;;;;4988994;28;20214;-78
2022/12/17 23:28:58;;;;;;;13.40;7.13;;;-3.10;99.90;;;;;;4965687;28;20272;-75
2022/12/17 23:31:28;;;;;;;12.23;7.07;;;-3.10;99.90;;;;;;4971272;28;20182;-75
2022/12/17 23:33:54;;;;;;;13.10;7.47;;;-3.10;99.90;;;;;;4975817;28;20186;-75
2022/12/17 23:36:22;;;;;;;12.80;7.40;;;-3.10;99.90;;;;;;4979006;28;20204;-75
2022/12/17 23:38:51;;;;;;;11.93;6.90;;;-3.20;99.90;;;;;;4978537;28;20250;-75
2022/12/17 23:41:22;;;;;;;12.33;6.57;;;-3.20;99.90;;;;;;4972442;28;20349;-74
2022/12/17 23:43:50;;;;;;;12.90;7.43;;;-3.20;99.90;;;;;;4978238;28;20199;-77
2022/12/17 23:46:20;;;;;;;13.30;6.83;;;-3.30;99.90;;;;;;4972856;28;20312;-76
2022/12/17 23:48:46;;;;;;;11.50;6.37;;;-3.30;99.90;;;;;;4978241;28;20167;-74
2022/12/17 23:51:20;;;;;;;10.40;5.93;;;-3.20;99.90;;;;;;4971076;28;20192;-75
2022/12/17 23:53:46;;;;;;;10.10;6.00;;;-3.40;99.90;;;;;;4963138;28;20226;-74
2022/12/17 23:56:14;;;;;;;12.10;6.47;;;-3.40;99.90;;;;;;4974741;28;20184;-74
2022/12/17 23:58:42;;;;;;;9.57;5.90;;;-3.50;99.90;;;;;;4970603;28;20203;-75
